createdAt,value
2023-05-05T00:00:33.265Z,7.09
2023-05-05T00:05:49.809Z,7.13
2023-05-05T00:10:53.947Z,7.15
2023-05-05T00:15:56.802Z,7.15
2023-05-05T00:20:59.735Z,7.13
2023-05-05T00:26:02.602Z,7.10
2023-05-05T00:31:05.520Z,7.05
2023-05-05T00:36:09.410Z,6.99
2023-05-05T00:41:12.324Z,6.93
2023-05-05T00:46:26.546Z,6.88
2023-05-05T00:51:29.841Z,6.88
2023-05-05T00:56:33.259Z,6.92
2023-05-05T01:01:36.389Z,6.94
2023-05-05T01:07:01.121Z,6.89
2023-05-05T01:12:03.879Z,6.83
2023-05-05T01:17:36.506Z,6.78
2023-05-05T01:22:57.428Z,6.77
2023-05-05T01:28:31.523Z,6.74
2023-05-05T01:33:59.959Z,6.72
2023-05-05T01:39:04.675Z,6.71
2023-05-05T01:44:09.635Z,6.68
2023-05-05T01:49:13.606Z,6.63
2023-05-05T01:54:17.743Z,6.61
2023-05-05T01:59:21.847Z,6.60
2023-05-05T02:04:27.591Z,6.56
2023-05-05T02:09:31.640Z,6.51
2023-05-05T02:14:36.108Z,6.49
2023-05-05T02:19:43.120Z,6.45
2023-05-05T02:24:46.197Z,6.39
2023-05-05T02:29:52.942Z,6.35
2023-05-05T02:34:58.990Z,6.29
2023-05-05T02:40:05.536Z,6.22
2023-05-05T02:45:14.123Z,6.15
2023-05-05T02:50:17.203Z,6.08
2023-05-05T02:55:20.452Z,6.05
2023-05-05T03:00:28.260Z,6.03
2023-05-05T03:05:44.023Z,5.97
2023-05-05T03:11:08.124Z,5.91
2023-05-05T03:16:13.284Z,5.88
2023-05-05T03:21:16.600Z,5.86
2023-05-05T03:26:19.318Z,5.85
2023-05-05T03:31:22.224Z,5.85
2023-05-05T03:36:26.184Z,5.84
2023-05-05T03:41:30.829Z,5.83
2023-05-05T03:46:33.642Z,5.86
2023-05-05T03:51:37.008Z,5.96
2023-05-05T03:56:40.462Z,6.04
2023-05-05T04:01:45.165Z,6.05
2023-05-05T04:06:48.033Z,6.08
2023-05-05T04:11:51.275Z,6.13
2023-05-05T04:16:54.013Z,6.15
2023-05-05T04:21:56.797Z,6.18
2023-05-05T04:26:59.730Z,6.21
2023-05-05T04:32:02.605Z,6.24
2023-05-05T04:37:05.489Z,6.24
2023-05-05T04:42:09.100Z,6.27
2023-05-05T04:47:13.972Z,6.36
2023-05-05T04:52:17.452Z,6.42
2023-05-05T04:57:20.352Z,6.51
2023-05-05T05:02:23.297Z,6.64
2023-05-05T05:07:26.577Z,6.75
2023-05-05T05:12:29.349Z,6.83
2023-05-05T05:17:32.220Z,6.94
2023-05-05T05:22:38.323Z,7.01
2023-05-05T05:27:41.887Z,7.10
2023-05-05T05:32:45.034Z,7.28
2023-05-05T05:37:48.239Z,7.35
2023-05-05T05:42:51.054Z,7.49
2023-05-05T05:47:53.962Z,7.56
2023-05-05T05:52:56.922Z,7.57
2023-05-05T05:57:59.778Z,7.64
2023-05-05T06:03:04.892Z,7.65
2023-05-05T06:08:08.109Z,7.49
2023-05-05T06:13:11.839Z,7.28
2023-05-05T06:18:18.480Z,7.16
2023-05-05T06:23:22.256Z,7.29
2023-05-05T06:28:25.491Z,7.42
2023-05-05T06:33:28.760Z,7.60
2023-05-05T06:38:31.514Z,7.77
2023-05-05T06:43:34.930Z,7.92
2023-05-05T06:48:37.801Z,8.01
2023-05-05T06:53:40.674Z,8.12
2023-05-05T06:58:43.476Z,8.21
2023-05-05T07:03:46.428Z,8.35
2023-05-05T07:08:49.523Z,8.51
2023-05-05T07:13:53.312Z,8.60
2023-05-05T07:18:57.101Z,8.68
2023-05-05T07:24:02.245Z,8.83
2023-05-05T07:29:11.515Z,9.02
2023-05-05T07:34:17.582Z,9.18
2023-05-05T07:39:22.052Z,9.40
2023-05-05T07:44:25.112Z,9.62
2023-05-05T07:49:28.096Z,9.85
2023-05-05T07:54:31.504Z,9.98
2023-05-05T07:59:35.117Z,10.09
2023-05-05T08:04:40.291Z,10.15
2023-05-05T08:09:45.579Z,10.25
2023-05-05T08:14:48.284Z,10.32
2023-05-05T08:19:54.792Z,10.37
2023-05-05T08:24:57.573Z,10.48
2023-05-05T08:30:00.446Z,10.67
2023-05-05T08:35:03.615Z,10.87
2023-05-05T08:40:07.448Z,10.89
2023-05-05T08:45:13.513Z,10.96
2023-05-05T08:50:17.487Z,11.05
2023-05-05T08:55:20.243Z,11.14
2023-05-05T09:00:23.747Z,11.22
2023-05-05T09:05:27.406Z,11.36
2023-05-05T09:10:31.164Z,11.48
2023-05-05T09:15:34.138Z,11.51
2023-05-05T09:20:37.727Z,11.51
2023-05-05T09:25:43.946Z,11.55
2023-05-05T09:30:47.413Z,11.71
2023-05-05T09:35:50.309Z,11.92
2023-05-05T09:40:54.158Z,12.10
2023-05-05T09:46:15.196Z,12.24
2023-05-05T09:51:29.806Z,12.28
2023-05-05T09:56:40.448Z,12.34
2023-05-05T10:01:44.003Z,12.53
2023-05-05T10:06:49.956Z,12.66
2023-05-05T10:11:53.944Z,12.97
2023-05-05T10:17:00.977Z,13.28
2023-05-05T10:22:08.478Z,13.55
2023-05-05T10:27:20.034Z,13.56
2023-05-05T10:37:39.430Z,13.71
2023-05-05T10:42:42.275Z,13.85
2023-05-05T10:47:45.123Z,13.93
2023-05-05T10:52:58.890Z,14.09
2023-05-05T10:58:01.885Z,14.44
2023-05-05T11:03:20.700Z,14.70
2023-05-05T11:08:27.248Z,14.76
2023-05-05T11:13:30.629Z,14.84
2023-05-05T11:18:36.563Z,14.69
2023-05-05T11:23:39.418Z,14.70
2023-05-05T11:28:54.859Z,14.82
2023-05-05T11:34:28.930Z,14.87
2023-05-05T11:39:54.658Z,14.79
2023-05-05T11:44:57.905Z,14.46
2023-05-05T11:50:16.551Z,14.68
2023-05-05T11:55:22.116Z,14.94
2023-05-05T12:00:34.257Z,15.01
2023-05-05T12:05:37.218Z,14.80
2023-05-05T12:10:40.144Z,14.97
2023-05-05T12:15:42.942Z,15.08
2023-05-05T12:20:45.664Z,15.37
2023-05-05T12:25:49.803Z,15.53
2023-05-05T12:30:57.822Z,15.36
2023-05-05T12:36:01.073Z,15.24
2023-05-05T12:41:04.722Z,15.30
2023-05-05T12:46:14.398Z,15.62
2023-05-05T12:51:17.369Z,15.92
2023-05-05T12:56:49.432Z,15.97
2023-05-05T13:01:54.076Z,16.06
2023-05-05T13:07:15.238Z,15.82
2023-05-05T13:12:18.887Z,15.65
2023-05-05T13:17:21.758Z,15.76
2023-05-05T13:22:24.628Z,15.98
2023-05-05T13:27:27.659Z,16.04
2023-05-05T13:32:30.563Z,16.20
2023-05-05T13:37:33.398Z,16.42
2023-05-05T13:42:36.205Z,16.55
2023-05-05T13:47:39.113Z,16.61
2023-05-05T13:52:42.089Z,16.72
2023-05-05T13:57:44.919Z,17.25
2023-05-05T14:02:50.909Z,17.83
2023-05-05T14:07:54.368Z,18.44
2023-05-05T14:12:57.787Z,19.12
2023-05-05T14:18:03.520Z,19.83
2023-05-05T14:23:06.526Z,20.23
2023-05-05T14:28:09.396Z,20.02
2023-05-05T14:33:13.892Z,19.54
2023-05-05T14:38:16.773Z,18.61
2023-05-05T14:43:19.570Z,18.45
2023-05-05T14:48:22.750Z,18.96
2023-05-05T14:53:25.722Z,19.85
2023-05-05T14:58:28.551Z,20.53
2023-05-05T15:03:31.788Z,20.33
2023-05-05T15:08:35.136Z,19.75
2023-05-05T15:13:41.854Z,19.36
2023-05-05T15:18:44.676Z,20.52
2023-05-05T15:23:47.964Z,21.38
2023-05-05T15:28:52.700Z,20.83
2023-05-05T15:33:56.162Z,20.52
2023-05-05T15:38:59.211Z,21.36
2023-05-05T15:44:03.355Z,22.77
2023-05-05T15:49:06.179Z,23.89
2023-05-05T15:54:08.939Z,24.44
2023-05-05T15:59:11.745Z,24.74
2023-05-05T16:04:14.767Z,24.12
2023-05-05T16:09:17.891Z,23.57
2023-05-05T16:14:20.718Z,22.99
2023-05-05T16:19:26.648Z,22.71
2023-05-05T16:24:29.451Z,22.57
2023-05-05T16:29:32.290Z,22.57
2023-05-05T16:34:35.144Z,22.02
2023-05-05T16:39:40.374Z,21.40
2023-05-05T16:44:43.511Z,21.76
2023-05-05T16:49:46.613Z,21.90
2023-05-05T16:54:55.575Z,21.95
2023-05-05T16:59:58.621Z,21.73
2023-05-05T17:05:02.498Z,21.68
2023-05-05T17:10:06.452Z,21.24
2023-05-05T17:15:09.789Z,20.03
2023-05-05T17:20:13.178Z,18.19
2023-05-05T17:25:16.144Z,16.54
2023-05-05T17:30:19.310Z,15.11
2023-05-05T17:35:22.190Z,13.86
2023-05-05T17:40:25.088Z,12.93
2023-05-05T17:45:28.142Z,12.17
2023-05-05T17:50:31.007Z,11.57
2023-05-05T17:55:33.797Z,11.06
2023-05-05T18:00:36.610Z,10.57
2023-05-05T18:05:39.492Z,10.16
2023-05-05T18:10:42.305Z,9.76
2023-05-05T18:15:45.194Z,9.38
2023-05-05T18:20:48.407Z,9.05
2023-05-05T18:25:51.224Z,8.74
2023-05-05T18:30:54.180Z,8.45
2023-05-05T18:35:57.941Z,8.21
2023-05-05T18:41:00.791Z,7.98
2023-05-05T18:46:03.639Z,7.76
2023-05-05T18:51:07.537Z,7.60
2023-05-05T18:56:10.367Z,7.45
2023-05-05T19:01:13.276Z,7.32
2023-05-05T19:06:17.391Z,7.20
2023-05-05T19:11:20.674Z,7.08
2023-05-05T19:16:24.127Z,6.95
2023-05-05T19:21:27.818Z,6.82
2023-05-05T19:26:30.690Z,6.71
2023-05-05T19:31:33.626Z,6.60
2023-05-05T19:36:36.684Z,6.48
2023-05-05T19:41:39.583Z,6.35
2023-05-05T19:46:42.696Z,6.23
2023-05-05T19:51:47.708Z,6.13
2023-05-05T19:56:51.549Z,6.00
2023-05-05T20:01:54.443Z,5.85
2023-05-05T20:06:57.402Z,5.72
2023-05-05T20:12:00.336Z,5.60
2023-05-05T20:17:03.292Z,5.49
2023-05-05T20:22:06.240Z,5.39
2023-05-05T20:27:09.046Z,5.30
2023-05-05T20:32:11.848Z,5.21
2023-05-05T20:37:14.713Z,5.12
2023-05-05T20:42:17.555Z,5.01
2023-05-05T20:47:20.761Z,4.88
2023-05-05T20:52:23.595Z,4.74
2023-05-05T20:57:26.452Z,4.59
2023-05-05T21:02:29.403Z,4.47
2023-05-05T21:07:35.588Z,4.37
2023-05-05T21:12:40.321Z,4.30
2023-05-05T21:17:43.173Z,4.22
2023-05-05T21:22:46.087Z,4.12
2023-05-05T21:27:49.221Z,4.00
2023-05-05T21:32:52.180Z,3.89
2023-05-05T21:37:55.031Z,3.79
2023-05-05T21:42:57.831Z,3.70
2023-05-05T21:48:01.074Z,3.62
2023-05-05T21:53:03.876Z,3.52
2023-05-05T21:58:06.725Z,3.43
2023-05-05T22:03:09.967Z,3.36
2023-05-05T22:08:13.035Z,3.29
2023-05-05T22:13:16.008Z,3.22
2023-05-05T22:18:18.872Z,3.16
2023-05-05T22:23:21.709Z,3.07
2023-05-05T22:28:24.706Z,2.96
2023-05-05T22:33:28.563Z,2.87
2023-05-05T22:38:31.402Z,2.78
2023-05-05T22:43:34.199Z,2.68
2023-05-05T22:48:37.055Z,2.57
2023-05-05T22:53:39.899Z,2.47
2023-05-05T22:58:42.816Z,2.38
2023-05-05T23:03:45.632Z,2.26
2023-05-05T23:08:49.425Z,2.14
2023-05-05T23:13:52.305Z,2.03
2023-05-05T23:18:55.110Z,1.94
2023-05-05T23:23:57.966Z,1.86
2023-05-05T23:29:00.808Z,1.77
2023-05-05T23:34:03.651Z,1.69
2023-05-05T23:39:07.386Z,1.62
2023-05-05T23:44:10.240Z,1.57
2023-05-05T23:49:13.052Z,1.51
2023-05-05T23:54:15.939Z,1.47
2023-05-05T23:59:18.744Z,1.43
